Terminal Aerodrome Forecast
Issued by NWS

Home | Current Version | Previous Version | Text Only | Print | Product List | Glossary On
Versions: 1 2 3 4 5 6 7 8 9 10 11 12 13 14 15 16 17 18 19 20 21
000
FTUS46 KPDT 210152 AAB
TAFYKM
TAF AMD
KYKM 210152Z 2102/2124 24006KT P6SM SCT120 BKN200
     FM211500 20006KT P6SM VCSH BKN060
     FM212000 VRB04KT P6SM -RA OVC035=

USA.gov is the U.S. government's official web portal to all federal, state and local government web resources and services.